Terminal Aerodrome Forecast
Issued by NWS

Home | Current Version | Previous Version | Text Only | Print | Product List | Glossary On
Versions: 1 2 3 4 5 6 7 8 9 10 11 12 13 14 15 16 17 18 19 20 21 22 23 24 25 26
998
FTUS45 KFGZ 211132
TAFSEZ
TAF
KSEZ 211132Z 2112/2212 25010KT P6SM VCSH SCT025 BKN035
      TEMPO 2112/2114 4SM -SHSN OVC025
     FM211600 27015KT P6SM SCT050
     FM211800 30010KT P6SM SKC=

USA.gov is the U.S. government's official web portal to all federal, state and local government web resources and services.